METAR Data
IDs: Format: Raw Decoded Include TAF

Data at: 0714 UTC 01 Dec 2022

KDLS 010653Z AUTO 21004KT 10SM BKN045 OVC055 05/02 A2955 RMK AO2 RAB0556E28 SLP007 P0001 T00500017